Terminal Aerodrome Forecast
Issued by NWS

Home | Current Version | Previous Version | Text Only | Print | Product List | Glossary On
Versions: 1 2 3 4 5 6 7 8 9 10 11 12 13 14
348
FTUS42 KTBW 222105 AAA
TAFLAL
TAF AMD
KLAL 222105Z 2221/2318 15010G15KT P6SM VCSH SCT025 BKN080 OVC110
      TEMPO 2221/2223 3SM TSRA FEW010 BKN020CB BKN100
     FM230100 04006KT P6SM VCSH SCT015 BKN040
     FM230300 35006KT P6SM BKN070
     FM230600 32004KT 6SM BR BKN015
     FM231400 03008KT P6SM SCT015 BKN100=

USA.gov is the U.S. government's official web portal to all federal, state and local government web resources and services.